Time;durP1;ratioP1;P1;durP2;ratioP2;P2;SDS_P1;SDS_P2;PMS_P1;PMS_P2;Temp;Humidity;BMP_temperature;BMP_pressure;BME280_temperature;BME280_humidity;BME280_pressure;Samples;Min_cycle;Max_cycle;Signal;HPM_P1;HPM_P2
2021/12/14 00:02:28;;;;;;;1999.90;999.90;;;1.50;99.90;;;;;;10457615;28;20041;-67
2021/12/14 00:07:33;;;;;;;1999.90;999.90;;;1.50;99.90;;;;;;10457559;28;20045;-66
2021/12/14 00:12:54;;;;;;;1999.90;999.90;;;1.50;99.90;;;;;;10457073;28;20037;-66
2021/12/14 00:18:04;;;;;;;1999.90;999.90;;;1.50;99.90;;;;;;10456894;28;20049;-66
2021/12/14 00:28:26;;;;;;;1999.90;999.90;;;1.50;99.90;;;;;;10456103;28;20045;-66
2021/12/14 00:33:34;;;;;;;1999.90;999.90;;;1.50;99.90;;;;;;10438602;28;20087;-66
2021/12/14 00:38:42;;;;;;;1999.90;999.90;;;1.50;99.90;;;;;;10456636;28;20338;-66
2021/12/14 00:43:48;;;;;;;566.25;277.10;;;1.60;99.90;;;;;;10456522;28;20045;-66
2021/12/14 00:48:54;;;;;;;80.97;35.10;;;1.50;99.90;;;;;;10438920;28;20100;-66
2021/12/14 00:54:03;;;;;;;217.68;73.75;;;1.50;99.90;;;;;;10422016;28;20049;-66
2021/12/14 00:59:09;;;;;;;212.43;68.82;;;1.40;99.90;;;;;;10456187;28;20037;-67
2021/12/14 01:04:22;;;;;;;208.48;69.00;;;1.40;99.90;;;;;;10445150;28;20049;-66
2021/12/14 01:09:32;;;;;;;211.07;69.00;;;1.50;99.90;;;;;;10446689;28;20052;-66
2021/12/14 01:20:39;;;;;;;221.70;70.97;;;1.50;99.90;;;;;;10256726;29;20394;-66
2021/12/14 01:25:50;;;;;;;202.68;68.25;;;1.70;99.90;;;;;;10255815;29;20091;-65
2021/12/14 01:31:26;;;;;;;192.40;63.85;;;1.70;99.90;;;;;;10255648;29;20051;-65
2021/12/14 01:36:35;;;;;;;195.07;65.20;;;1.60;99.90;;;;;;10254612;29;20051;-65
2021/12/14 01:41:41;;;;;;;191.98;65.28;;;1.60;99.90;;;;;;10255778;29;20055;-65
2021/12/14 01:46:53;;;;;;;201.65;64.18;;;1.50;99.90;;;;;;10239149;29;20051;-66
2021/12/14 01:52:26;;;;;;;203.70;63.22;;;1.60;99.90;;;;;;10289234;28;20407;-67
2021/12/14 01:57:33;;;;;;;187.70;58.58;;;1.70;99.90;;;;;;10379344;28;20483;-65
2021/12/14 02:02:42;;;;;;;180.07;58.97;;;1.70;99.90;;;;;;10400560;28;20049;-66
2021/12/14 02:07:48;;;;;;;214.85;68.53;;;1.70;99.90;;;;;;10419691;28;20399;-66
2021/12/14 02:12:54;;;;;;;201.73;68.05;;;1.70;99.90;;;;;;10420226;28;20099;-65
2021/12/14 02:18:04;;;;;;;1999.90;999.90;;;1.70;99.90;;;;;;10419346;28;20064;-65
2021/12/14 02:23:10;;;;;;;194.27;96.18;;;1.70;99.90;;;;;;10434936;28;20045;-66
2021/12/14 02:28:18;;;;;;;143.48;66.75;;;1.70;99.90;;;;;;10420410;28;20046;-65
2021/12/14 02:33:32;;;;;;;441.67;142.98;;;1.60;99.90;;;;;;10435491;28;20102;-66
2021/12/14 02:38:53;;;;;;;255.45;127.45;;;1.60;99.90;;;;;;10443467;28;20044;-65
2021/12/14 02:44:00;;;;;;;213.13;92.80;;;1.70;99.90;;;;;;10460034;28;20045;-65
2021/12/14 02:49:14;;;;;;;209.10;88.22;;;1.80;99.90;;;;;;10442712;28;20053;-66
2021/12/14 02:54:52;;;;;;;207.65;72.68;;;1.80;99.90;;;;;;10426520;28;20048;-65
2021/12/14 03:00:16;;;;;;;197.23;75.47;;;1.70;99.90;;;;;;10442412;28;20114;-65
2021/12/14 03:05:26;;;;;;;187.95;67.43;;;1.70;99.90;;;;;;10458783;28;20045;-66
2021/12/14 03:10:39;;;;;;;252.52;73.45;;;1.70;99.90;;;;;;10441838;28;20391;-65
2021/12/14 03:15:52;;;;;;;201.95;64.32;;;1.80;99.90;;;;;;10441318;28;20052;-65
2021/12/14 03:21:08;;;;;;;195.15;60.30;;;1.80;99.90;;;;;;10424679;28;20057;-66
2021/12/14 03:26:17;;;;;;;254.15;78.70;;;1.90;99.90;;;;;;10457705;28;20044;-66
2021/12/14 03:31:27;;;;;;;144.70;52.88;;;1.90;99.90;;;;;;10458244;28;20048;-65
2021/12/14 03:36:38;;;;;;;134.15;47.15;;;2.00;99.90;;;;;;10459276;28;20086;-65
2021/12/14 03:41:52;;;;;;;141.65;47.88;;;2.00;99.90;;;;;;10458394;28;20095;-65
2021/12/14 03:47:05;;;;;;;150.30;49.72;;;2.10;99.90;;;;;;10441198;28;20041;-65
2021/12/14 03:52:16;;;;;;;161.65;53.85;;;2.00;99.90;;;;;;10440300;28;20041;-64
2021/12/14 03:57:22;;;;;;;145.23;46.77;;;2.00;99.90;;;;;;10439725;28;20049;-64
2021/12/14 04:02:29;;;;;;;153.32;50.03;;;2.00;99.90;;;;;;10439729;28;20048;-66
2021/12/14 04:07:36;;;;;;;160.23;50.75;;;2.00;99.90;;;;;;10456915;28;20053;-65
2021/12/14 04:12:52;;;;;;;248.77;75.05;;;2.10;99.90;;;;;;10439077;28;20445;-66
2021/12/14 04:17:58;;;;;;;152.02;50.13;;;2.10;99.90;;;;;;10439139;28;20056;-66
2021/12/14 04:23:08;;;;;;;148.02;49.50;;;2.10;99.90;;;;;;10455291;28;20044;-65
2021/12/14 04:28:17;;;;;;;342.55;108.43;;;2.20;99.90;;;;;;10438840;28;20193;-65
2021/12/14 04:33:30;;;;;;;140.45;49.50;;;2.10;99.90;;;;;;10438720;28;20053;-66
2021/12/14 04:38:45;;;;;;;140.07;49.22;;;2.10;99.90;;;;;;10438452;28;20057;-65
2021/12/14 04:54:57;;;;;;;146.85;47.13;;;2.20;99.90;;;;;;10438026;28;20067;-65
2021/12/14 05:00:27;;;;;;;142.43;47.10;;;2.20;99.90;;;;;;10438084;28;20102;-65
2021/12/14 05:05:50;;;;;;;147.52;49.28;;;2.20;99.90;;;;;;10437862;28;20147;-65
2021/12/14 05:11:10;;;;;;;147.18;58.65;;;2.20;99.90;;;;;;10437874;28;20071;-66
2021/12/14 05:16:22;;;;;;;154.80;56.85;;;2.30;99.90;;;;;;10422059;28;20045;-65
2021/12/14 05:21:41;;;;;;;140.18;44.53;;;2.30;99.90;;;;;;10438343;28;20044;-65
2021/12/14 05:26:54;;;;;;;124.47;43.67;;;2.30;99.90;;;;;;10454243;28;20075;-66
2021/12/14 05:32:04;;;;;;;139.18;51.25;;;2.40;99.90;;;;;;10437201;28;20505;-65
2021/12/14 05:37:24;;;;;;;130.93;49.58;;;2.40;99.90;;;;;;10438072;28;20413;-65
2021/12/14 05:48:15;;;;;;;120.40;44.10;;;2.40;99.90;;;;;;10458645;28;20052;-65
2021/12/14 05:53:25;;;;;;;103.55;39.13;;;2.40;99.90;;;;;;10444309;28;20048;-65
2021/12/14 05:58:30;;;;;;;117.65;43.42;;;2.40;99.90;;;;;;10444296;28;20509;-64
2021/12/14 06:03:42;;;;;;;123.25;43.70;;;2.40;99.90;;;;;;10444133;28;20064;-65
2021/12/14 06:08:48;;;;;;;108.63;38.72;;;2.40;99.90;;;;;;10444292;28;20111;-66
2021/12/14 06:14:04;;;;;;;102.15;39.50;;;2.50;99.90;;;;;;10443507;28;20402;-65
2021/12/14 06:19:25;;;;;;;136.57;52.38;;;2.40;99.90;;;;;;10461843;28;20041;-65
2021/12/14 06:24:39;;;;;;;111.82;39.47;;;2.50;99.90;;;;;;10443504;28;20060;-66
2021/12/14 06:29:51;;;;;;;118.57;41.55;;;2.50;99.90;;;;;;10443681;28;20099;-65
2021/12/14 06:35:06;;;;;;;129.77;87.43;;;2.50;99.90;;;;;;10461390;28;20056;-64
2021/12/14 06:40:21;;;;;;;73.32;59.15;;;2.50;99.90;;;;;;10442734;28;20095;-66
2021/12/14 06:45:30;;;;;;;130.55;78.72;;;2.50;99.90;;;;;;10460094;28;20049;-66
2021/12/14 06:50:45;;;;;;;119.37;43.97;;;2.50;99.90;;;;;;10442179;28;20052;-65
2021/12/14 06:56:09;;;;;;;113.10;44.53;;;2.50;99.90;;;;;;10442106;28;20296;-64
2021/12/14 07:01:38;;;;;;;120.80;47.95;;;2.60;99.90;;;;;;10458404;28;20057;-65
2021/12/14 07:06:49;;;;;;;127.22;49.00;;;2.50;99.90;;;;;;10442287;28;20045;-66
2021/12/14 07:12:12;;;;;;;120.13;42.50;;;2.60;99.90;;;;;;10458088;28;20106;-66
2021/12/14 07:17:44;;;;;;;110.68;42.05;;;2.60;99.90;;;;;;10459470;28;20041;-65
2021/12/14 07:22:55;;;;;;;104.25;39.58;;;2.70;99.90;;;;;;10459192;28;20103;-65
2021/12/14 07:28:10;;;;;;;105.82;40.85;;;2.70;99.90;;;;;;10459183;28;20053;-65
2021/12/14 07:33:34;;;;;;;104.90;39.30;;;2.80;99.90;;;;;;10458523;28;20103;-64
2021/12/14 07:38:45;;;;;;;109.63;38.70;;;2.80;99.90;;;;;;10471504;28;20098;-64
2021/12/14 07:44:13;;;;;;;116.93;51.63;;;2.80;99.90;;;;;;10457954;28;20079;-65
2021/12/14 07:49:33;;;;;;;125.47;52.30;;;2.80;99.90;;;;;;10457982;28;20045;-65
2021/12/14 07:54:40;;;;;;;103.10;44.97;;;2.90;99.90;;;;;;10457847;28;20041;-64
2021/12/14 07:59:53;;;;;;;118.50;43.75;;;2.90;99.90;;;;;;10457253;28;20110;-66
2021/12/14 08:05:00;;;;;;;110.78;49.80;;;2.90;99.90;;;;;;10457648;28;20045;-64
2021/12/14 08:10:26;;;;;;;116.80;54.92;;;2.90;99.90;;;;;;10456178;28;20057;-65
2021/12/14 08:15:53;;;;;;;119.45;72.28;;;3.00;99.90;;;;;;10456502;28;20049;-64
2021/12/14 08:21:08;;;;;;;131.13;71.95;;;2.90;99.90;;;;;;10457076;28;20444;-64
2021/12/14 08:26:24;;;;;;;126.45;63.00;;;2.90;99.90;;;;;;10456942;28;20041;-65
2021/12/14 08:31:38;;;;;;;136.05;61.15;;;2.90;99.90;;;;;;10456131;28;20099;-64
2021/12/14 08:36:51;;;;;;;122.85;58.97;;;2.90;99.90;;;;;;10456225;28;20478;-64
2021/12/14 08:42:28;;;;;;;171.20;82.03;;;2.90;99.90;;;;;;10456036;28;20045;-65
2021/12/14 08:47:39;;;;;;;130.88;77.55;;;3.00;99.90;;;;;;10456049;28;20095;-64
2021/12/14 08:52:44;;;;;;;120.10;57.67;;;3.00;99.90;;;;;;10455620;28;20048;-64
2021/12/14 08:57:49;;;;;;;144.27;81.75;;;3.00;99.90;;;;;;10455418;28;20083;-65
2021/12/14 09:02:59;;;;;;;157.55;100.30;;;3.00;99.90;;;;;;10455542;28;20107;-65
2021/12/14 09:08:05;;;;;;;171.70;114.45;;;3.10;99.90;;;;;;10455396;28;20410;-64
2021/12/14 09:13:12;;;;;;;164.98;113.95;;;3.10;99.90;;;;;;10455742;28;20449;-64
2021/12/14 09:18:18;;;;;;;148.15;104.90;;;3.10;99.90;;;;;;10454949;28;20045;-65
2021/12/14 09:23:28;;;;;;;145.77;100.40;;;3.20;99.90;;;;;;10459695;28;20049;-64
2021/12/14 09:28:35;;;;;;;142.57;88.45;;;3.20;99.90;;;;;;10463007;28;20049;-65
2021/12/14 09:33:41;;;;;;;139.60;105.60;;;3.20;99.90;;;;;;10462532;28;20461;-64
2021/12/14 09:38:55;;;;;;;150.63;118.60;;;3.20;99.90;;;;;;10463301;28;20041;-65
2021/12/14 09:44:04;;;;;;;110.55;93.32;;;3.30;99.90;;;;;;10462651;28;20049;-64
2021/12/14 09:49:11;;;;;;;125.55;93.43;;;3.30;99.90;;;;;;10462334;28;20406;-64
2021/12/14 09:54:19;;;;;;;144.20;115.68;;;3.30;99.90;;;;;;10462705;28;20045;-64
2021/12/14 09:59:24;;;;;;;143.48;128.02;;;3.30;99.90;;;;;;10462794;28;20049;-64
2021/12/14 10:04:40;;;;;;;143.52;92.50;;;3.40;99.90;;;;;;10462329;28;20087;-65
2021/12/14 10:09:48;;;;;;;200.40;134.93;;;3.40;99.90;;;;;;10461700;28;20049;-65
2021/12/14 10:14:54;;;;;;;103.87;63.37;;;3.30;99.90;;;;;;10461253;28;20040;-64
2021/12/14 10:20:00;;;;;;;124.68;101.28;;;3.40;99.90;;;;;;10461149;28;20406;-65
2021/12/14 10:25:09;;;;;;;133.32;118.70;;;3.50;99.90;;;;;;10460900;28;20060;-64
2021/12/14 10:30:26;;;;;;;125.68;112.25;;;3.50;99.90;;;;;;10461263;28;20048;-64
2021/12/14 10:35:40;;;;;;;141.68;126.22;;;3.50;99.90;;;;;;10417985;28;20049;-64
2021/12/14 10:46:25;;;;;;;1999.90;999.90;;;3.50;99.90;;;;;;10418939;28;20107;-64
2021/12/14 10:51:34;;;;;;;136.80;116.03;;;3.50;99.90;;;;;;10418236;28;20398;-64
2021/12/14 10:57:02;;;;;;;107.22;62.22;;;3.60;99.90;;;;;;10418932;28;20088;-64
2021/12/14 11:02:07;;;;;;;1999.90;999.90;;;3.70;99.90;;;;;;10418731;28;20053;-64
2021/12/14 11:07:21;;;;;;;1999.90;999.90;;;3.80;99.90;;;;;;10418057;28;20100;-64
2021/12/14 11:12:28;;;;;;;133.77;116.07;;;3.80;99.90;;;;;;10416553;28;20487;-66
2021/12/14 11:23:13;;;;;;;1999.90;999.90;;;3.90;99.90;;;;;;10418758;28;20053;-65
2021/12/14 11:28:29;;;;;;;1999.90;999.90;;;3.80;99.90;;;;;;10416925;28;20072;-65
2021/12/14 11:34:00;;;;;;;1999.90;999.90;;;3.80;99.90;;;;;;10435729;28;20118;-64
2021/12/14 11:39:11;;;;;;;;;;;3.70;99.90;;;;;;10458148;28;20318;-64
2021/12/14 11:44:35;;;;;;;1999.90;999.90;;;3.70;99.90;;;;;;10455931;28;19921;-64
2021/12/14 11:49:54;;;;;;;1999.90;999.90;;;3.80;99.90;;;;;;10457700;28;20539;-65
2021/12/14 11:55:35;;;;;;;90.28;81.53;;;3.80;99.90;;;;;;10457259;28;20053;-64
2021/12/14 12:00:51;;;;;;;137.02;117.70;;;3.80;99.90;;;;;;10457296;28;20048;-64
2021/12/14 12:06:43;;;;;;;632.13;362.10;;;3.80;99.90;;;;;;10457240;28;20057;-65
2021/12/14 12:11:51;;;;;;;126.07;108.05;;;3.80;99.90;;;;;;10457429;28;20048;-64
2021/12/14 12:17:18;;;;;;;1999.90;999.90;;;3.80;99.90;;;;;;10457099;28;20041;-64
2021/12/14 12:22:23;;;;;;;173.05;133.18;;;3.90;99.90;;;;;;10457010;28;20072;-66
2021/12/14 12:27:33;;;;;;;1999.90;999.90;;;3.90;99.90;;;;;;10456825;28;20044;-66
2021/12/14 12:32:38;;;;;;;1999.90;999.90;;;3.90;99.90;;;;;;10456104;28;20053;-65
2021/12/14 12:37:44;;;;;;;1999.90;999.90;;;3.90;99.90;;;;;;10456518;28;20037;-65
2021/12/14 12:42:49;;;;;;;1999.90;999.90;;;3.90;99.90;;;;;;10456410;28;20049;-64
2021/12/14 12:47:54;;;;;;;1999.90;999.90;;;3.80;99.90;;;;;;10455833;28;20057;-64
2021/12/14 12:52:59;;;;;;;1999.90;999.90;;;3.90;99.90;;;;;;10437941;28;20099;-64
2021/12/14 12:58:12;;;;;;;1999.90;999.90;;;3.80;99.90;;;;;;10458714;28;20049;-64
2021/12/14 13:03:31;;;;;;;1999.90;999.90;;;3.80;99.90;;;;;;10464448;28;20057;-64
2021/12/14 13:08:47;;;;;;;166.60;142.43;;;3.80;99.90;;;;;;10463635;28;20045;-64
2021/12/14 13:14:03;;;;;;;1999.90;999.90;;;3.80;99.90;;;;;;10463620;28;20463;-64
2021/12/14 13:19:23;;;;;;;1999.90;999.90;;;3.80;99.90;;;;;;10464058;28;20045;-64
2021/12/14 13:24:40;;;;;;;1999.90;999.90;;;3.70;99.90;;;;;;10463894;28;20498;-65
2021/12/14 13:29:53;;;;;;;682.83;375.38;;;3.70;99.90;;;;;;10463175;28;20041;-66
2021/12/14 13:35:22;;;;;;;1999.90;999.90;;;3.70;99.90;;;;;;10462873;28;20057;-65
2021/12/14 13:40:27;;;;;;;1999.90;999.90;;;3.70;99.90;;;;;;10462794;28;20049;-64
2021/12/14 13:45:36;;;;;;;1999.90;999.90;;;3.70;99.90;;;;;;10462365;28;20103;-64
2021/12/14 13:50:49;;;;;;;1517.00;761.22;;;3.60;99.90;;;;;;10462601;28;20049;-64
2021/12/14 13:56:00;;;;;;;1999.90;999.90;;;3.60;99.90;;;;;;10462750;28;20045;-65
2021/12/14 14:01:13;;;;;;;1999.90;999.90;;;3.60;99.90;;;;;;10462072;28;20099;-64
2021/12/14 14:06:20;;;;;;;1999.90;999.90;;;3.60;99.90;;;;;;10461940;28;20086;-64
2021/12/14 14:11:32;;;;;;;1999.90;999.90;;;3.70;99.90;;;;;;10460275;28;20045;-65
2021/12/14 14:16:51;;;;;;;1999.90;999.90;;;3.70;99.90;;;;;;10459206;28;20106;-65
2021/12/14 14:22:02;;;;;;;1999.90;999.90;;;3.60;99.90;;;;;;10461054;28;20130;-66
2021/12/14 14:27:27;;;;;;;1999.90;999.90;;;3.60;99.90;;;;;;10461586;28;20067;-65
2021/12/14 14:32:36;;;;;;;1999.90;999.90;;;3.70;99.90;;;;;;10460410;28;20061;-64
2021/12/14 14:37:41;;;;;;;1999.90;999.90;;;3.70;99.90;;;;;;10460541;28;20477;-64
2021/12/14 14:42:55;;;;;;;1999.90;999.90;;;3.60;99.90;;;;;;10460318;28;20441;-64
2021/12/14 14:48:18;;;;;;;1999.90;999.90;;;3.60;99.90;;;;;;10460275;28;20065;-64
2021/12/14 14:53:31;;;;;;;1999.90;999.90;;;3.70;99.90;;;;;;10459896;28;20045;-65
2021/12/14 14:58:48;;;;;;;654.90;378.17;;;3.60;99.90;;;;;;10459694;28;20055;-65
2021/12/14 15:04:02;;;;;;;1999.90;999.90;;;3.70;99.90;;;;;;10459965;28;20053;-64
2021/12/14 15:09:28;;;;;;;1999.90;999.90;;;3.70;99.90;;;;;;10459422;28;20053;-64
2021/12/14 15:14:42;;;;;;;1999.90;999.90;;;3.70;99.90;;;;;;10458802;28;20045;-65
2021/12/14 15:19:50;;;;;;;1999.90;999.90;;;3.70;99.90;;;;;;10458711;28;20429;-65
2021/12/14 15:25:05;;;;;;;1999.90;999.90;;;3.80;99.90;;;;;;10458343;28;20491;-65
2021/12/14 15:30:18;;;;;;;1999.90;999.90;;;3.70;99.90;;;;;;10458429;28;20071;-64
2021/12/14 15:35:39;;;;;;;1999.90;999.90;;;3.70;99.90;;;;;;10458098;28;20098;-64
2021/12/14 15:40:57;;;;;;;1052.80;545.08;;;3.80;99.90;;;;;;10458045;28;20095;-65
2021/12/14 15:46:35;;;;;;;1999.90;999.90;;;3.80;99.90;;;;;;10458140;28;20049;-64
2021/12/14 15:51:44;;;;;;;1999.90;999.90;;;3.80;99.90;;;;;;10454741;28;20052;-65
2021/12/14 15:57:11;;;;;;;1999.90;999.90;;;3.90;99.90;;;;;;10458995;28;20045;-65
2021/12/14 16:02:23;;;;;;;1999.90;999.90;;;3.90;99.90;;;;;;10457414;28;20057;-65
2021/12/14 16:07:35;;;;;;;1999.90;999.90;;;4.00;99.90;;;;;;10457080;28;20053;-64
2021/12/14 16:17:55;;;;;;;1999.90;999.90;;;3.90;99.90;;;;;;10456608;28;20091;-65
2021/12/14 16:23:02;;;;;;;;;;;4.00;99.90;;;;;;10457101;28;20045;-64
2021/12/14 16:28:17;;;;;;;1999.90;999.90;;;4.10;99.90;;;;;;10439148;28;19920;-65
2021/12/14 16:33:31;;;;;;;1999.90;999.90;;;4.00;99.90;;;;;;10457496;28;20080;-65
2021/12/14 16:38:44;;;;;;;1999.90;999.90;;;4.10;99.90;;;;;;10455883;28;20449;-65
2021/12/14 16:44:32;;;;;;;1999.90;999.90;;;4.10;99.90;;;;;;10455829;28;20056;-65
2021/12/14 16:49:56;;;;;;;1999.90;999.90;;;4.10;99.90;;;;;;10449813;28;20061;-65
2021/12/14 16:55:10;;;;;;;1999.90;999.90;;;4.10;99.90;;;;;;10450236;28;20111;-64
2021/12/14 17:00:42;;;;;;;1999.90;999.90;;;4.10;99.90;;;;;;10455637;28;20044;-64
2021/12/14 17:05:54;;;;;;;1999.90;999.90;;;4.20;99.90;;;;;;10448220;28;20091;-65
2021/12/14 17:11:02;;;;;;;1999.90;999.90;;;4.20;99.90;;;;;;10437867;28;20049;-65
2021/12/14 17:16:10;;;;;;;1999.90;999.90;;;4.30;99.90;;;;;;10455381;28;20049;-65
2021/12/14 17:21:33;;;;;;;1999.90;999.90;;;4.20;99.90;;;;;;10455345;28;20414;-65
2021/12/14 17:26:40;;;;;;;1999.90;999.90;;;4.30;99.90;;;;;;10421778;28;20045;-65
2021/12/14 17:31:48;;;;;;;1999.90;999.90;;;4.20;99.90;;;;;;10421692;28;20041;-65
2021/12/14 17:36:58;;;;;;;171.80;145.95;;;4.20;99.90;;;;;;10454777;28;20544;-65
2021/12/14 17:42:09;;;;;;;1999.90;999.90;;;4.30;99.90;;;;;;10455615;28;20041;-65
2021/12/14 17:47:20;;;;;;;210.77;173.25;;;4.40;99.90;;;;;;10429336;28;20102;-64
2021/12/14 17:52:32;;;;;;;1999.90;999.90;;;4.30;99.90;;;;;;10445396;28;20041;-64
2021/12/14 17:57:43;;;;;;;1999.90;999.90;;;4.40;99.90;;;;;;10477308;28;20083;-64
2021/12/14 18:03:13;;;;;;;1999.90;999.90;;;4.30;99.90;;;;;;10462522;28;20045;-64
2021/12/14 18:08:32;;;;;;;164.07;112.75;;;4.40;99.90;;;;;;10454509;28;20056;-65
2021/12/14 18:13:43;;;;;;;1999.90;999.90;;;4.40;99.90;;;;;;10462373;28;20049;-65
2021/12/14 18:19:02;;;;;;;1999.90;999.90;;;4.40;99.90;;;;;;10443757;28;20041;-65
2021/12/14 18:24:14;;;;;;;1999.90;999.90;;;4.40;99.90;;;;;;10440871;28;20048;-65
2021/12/14 18:29:32;;;;;;;1999.90;999.90;;;4.30;99.90;;;;;;10458153;28;20041;-65
2021/12/14 18:34:37;;;;;;;1999.90;999.90;;;4.30;99.90;;;;;;10459674;28;20053;-65
2021/12/14 18:39:54;;;;;;;1999.90;999.90;;;4.50;99.90;;;;;;10427298;28;20045;-65
2021/12/14 18:45:14;;;;;;;1999.90;999.90;;;4.50;99.90;;;;;;10460089;28;20380;-65
2021/12/14 18:50:33;;;;;;;1999.90;999.90;;;4.50;99.90;;;;;;10460614;28;20448;-65
2021/12/14 18:55:47;;;;;;;;;;;4.60;99.90;;;;;;10460621;28;20095;-65
2021/12/14 19:00:54;;;;;;;120.15;85.57;;;4.60;99.90;;;;;;10459673;28;19982;-65
2021/12/14 19:06:05;;;;;;;172.68;132.70;;;4.60;99.90;;;;;;10442083;28;20057;-65
2021/12/14 19:11:15;;;;;;;1999.90;999.90;;;4.60;99.90;;;;;;10455917;28;20045;-65
2021/12/14 19:16:26;;;;;;;1999.90;999.90;;;4.60;99.90;;;;;;10458456;28;20053;-64
2021/12/14 19:21:34;;;;;;;179.23;124.93;;;4.70;99.90;;;;;;10458819;28;20053;-65
2021/12/14 19:26:47;;;;;;;1999.90;999.90;;;4.70;99.90;;;;;;10458435;28;20106;-65
2021/12/14 19:31:56;;;;;;;1999.90;999.90;;;4.70;99.90;;;;;;10458892;28;20057;-64
2021/12/14 19:37:03;;;;;;;1999.90;999.90;;;4.70;99.90;;;;;;10459142;28;20095;-64
2021/12/14 19:42:12;;;;;;;1999.90;999.90;;;4.70;99.90;;;;;;10457992;28;20506;-64
2021/12/14 19:47:22;;;;;;;1999.90;999.90;;;4.70;99.90;;;;;;10457666;28;20053;-64
2021/12/14 19:52:27;;;;;;;701.00;508.75;;;4.80;99.90;;;;;;10457080;28;20048;-65
2021/12/14 19:57:35;;;;;;;1999.90;999.90;;;4.90;99.90;;;;;;10457177;28;20048;-65
2021/12/14 20:02:44;;;;;;;1999.90;999.90;;;4.90;99.90;;;;;;10457302;28;20547;-65
2021/12/14 20:07:50;;;;;;;1999.90;999.90;;;4.90;99.90;;;;;;10456554;28;20225;-65
2021/12/14 20:13:01;;;;;;;1999.90;999.90;;;4.90;99.90;;;;;;10457049;28;20098;-65
2021/12/14 20:18:23;;;;;;;1999.90;999.90;;;5.00;99.90;;;;;;10456513;28;20478;-64
2021/12/14 20:23:32;;;;;;;1999.90;999.90;;;5.00;99.90;;;;;;10439659;28;20110;-65
2021/12/14 20:28:41;;;;;;;;;;;5.00;99.90;;;;;;10457525;28;20049;-65
2021/12/14 20:34:14;;;;;;;1999.90;999.90;;;5.00;99.90;;;;;;10456212;28;19921;-65
2021/12/14 20:39:26;;;;;;;1999.90;999.90;;;5.10;99.90;;;;;;10456068;28;20448;-65
2021/12/14 20:45:12;;;;;;;1999.90;999.90;;;5.00;99.90;;;;;;10455869;28;20060;-64
2021/12/14 20:50:21;;;;;;;1999.90;999.90;;;5.10;99.90;;;;;;10455715;28;20053;-65
2021/12/14 20:55:29;;;;;;;1999.90;999.90;;;5.10;99.90;;;;;;10438197;28;20044;-65
2021/12/14 21:00:44;;;;;;;1999.90;999.90;;;5.20;99.90;;;;;;10455488;28;20053;-64
2021/12/14 21:05:52;;;;;;;1999.90;999.90;;;5.20;99.90;;;;;;10455779;28;20049;-65
2021/12/14 21:11:01;;;;;;;1999.90;999.90;;;5.20;99.90;;;;;;10456452;28;20099;-65
2021/12/14 21:16:29;;;;;;;1999.90;999.90;;;5.20;99.90;;;;;;10455902;28;20049;-64
2021/12/14 21:21:33;;;;;;;1999.90;999.90;;;5.20;99.90;;;;;;10445350;28;20099;-65
2021/12/14 21:26:42;;;;;;;1999.90;999.90;;;5.20;99.90;;;;;;10463547;28;20096;-65
2021/12/14 21:31:47;;;;;;;1999.90;999.90;;;5.20;99.90;;;;;;10463052;28;20049;-64
2021/12/14 21:36:56;;;;;;;1999.90;999.90;;;5.20;99.90;;;;;;10463296;28;20037;-65
2021/12/14 21:42:03;;;;;;;1999.90;999.90;;;5.20;99.90;;;;;;10463006;28;20045;-64
2021/12/14 21:47:22;;;;;;;140.00;91.47;;;5.20;99.90;;;;;;10462440;28;20076;-64
2021/12/14 21:52:33;;;;;;;1999.90;999.90;;;5.20;99.90;;;;;;10462967;28;20478;-65
2021/12/14 21:57:43;;;;;;;1999.90;999.90;;;5.10;99.90;;;;;;10462480;28;20090;-65
2021/12/14 22:02:49;;;;;;;1999.90;999.90;;;5.10;99.90;;;;;;10462563;28;20460;-64
2021/12/14 22:07:55;;;;;;;1999.90;999.90;;;5.10;99.90;;;;;;10462242;28;20045;-65
2021/12/14 22:13:03;;;;;;;1999.90;999.90;;;5.00;99.90;;;;;;10461502;28;20110;-65
2021/12/14 22:18:08;;;;;;;1999.90;999.90;;;5.10;99.90;;;;;;10461793;28;20037;-65
2021/12/14 22:23:13;;;;;;;1999.90;999.90;;;5.00;99.90;;;;;;10461848;28;20040;-64
2021/12/14 22:28:20;;;;;;;1999.90;999.90;;;5.10;99.90;;;;;;10461050;28;20402;-65
2021/12/14 22:33:28;;;;;;;1999.90;999.90;;;5.00;99.90;;;;;;10426808;28;20453;-65
2021/12/14 22:38:32;;;;;;;1999.90;999.90;;;4.90;99.90;;;;;;10460805;28;20071;-64
2021/12/14 22:49:12;;;;;;;1999.90;999.90;;;5.00;99.90;;;;;;10460129;28;20049;-64
2021/12/14 22:54:17;;;;;;;1999.90;999.90;;;4.90;99.90;;;;;;10460567;28;20095;-64
2021/12/14 22:59:22;;;;;;;1999.90;999.90;;;4.90;99.90;;;;;;10459140;28;20041;-65
2021/12/14 23:04:30;;;;;;;1999.90;999.90;;;4.90;99.90;;;;;;10458958;28;20049;-64
2021/12/14 23:09:46;;;;;;;1999.90;999.90;;;5.00;99.90;;;;;;10458983;28;20049;-64
2021/12/14 23:14:55;;;;;;;1999.90;999.90;;;4.90;99.90;;;;;;10459662;28;20045;-64
2021/12/14 23:20:06;;;;;;;1999.90;999.90;;;4.90;99.90;;;;;;10458983;28;20479;-64
2021/12/14 23:25:15;;;;;;;1999.90;999.90;;;4.90;99.90;;;;;;10458493;28;20106;-64
2021/12/14 23:30:44;;;;;;;1999.90;999.90;;;4.80;99.90;;;;;;10459070;28;20049;-64
2021/12/14 23:35:53;;;;;;;1999.90;999.90;;;4.80;99.90;;;;;;10454750;28;20084;-65
2021/12/14 23:40:59;;;;;;;1999.90;999.90;;;4.80;99.90;;;;;;10456299;28;20052;-65
2021/12/14 23:47:21;;;;;;;1999.90;999.90;;;4.70;99.90;;;;;;10441323;28;20063;-65
2021/12/14 23:51:38;;;;;;;1999.90;999.90;;;4.60;99.90;;;;;;10458292;28;20041;-64
2021/12/14 23:56:44;;;;;;;1999.90;999.90;;;4.70;99.90;;;;;;10457557;28;20059;-64
